Time;durP1;ratioP1;P1;durP2;ratioP2;P2;SDS_P1;SDS_P2;PMS_P1;PMS_P2;Temp;Humidity;BMP_temperature;BMP_pressure;BME280_temperature;BME280_humidity;BME280_pressure;Samples;Min_cycle;Max_cycle;Signal;HPM_P1;HPM_P2
2022/01/25 00:10:01;;;;;;;120.78;49.13;;;;;;;-1.45;100.00;95930.91;5010360;28;20085;-88
2022/01/25 00:33:31;;;;;;;139.73;48.35;;;;;;;-1.53;100.00;95937.75;5015732;28;20306;-88
2022/01/25 00:35:57;;;;;;;134.65;46.80;;;;;;;-1.53;100.00;95937.75;4999757;28;20026;-87
2022/01/25 00:38:23;;;;;;;131.95;46.88;;;;;;;-1.65;100.00;95942.34;5000711;28;20026;-88
2022/01/25 00:40:49;;;;;;;236.23;51.97;;;;;;;-1.59;100.00;95931.47;5015827;28;20033;-88
2022/01/25 00:43:15;;;;;;;171.43;49.83;;;;;;;-1.85;100.00;95934.84;5015940;28;20057;-87
2022/01/25 00:45:40;;;;;;;150.15;48.15;;;;;;;-2.19;100.00;95932.97;4999402;28;20018;-87
2022/01/25 00:48:08;;;;;;;141.65;50.72;;;;;;;-2.37;100.00;95940.69;4999629;28;20336;-88
2022/01/25 00:50:40;;;;;;;159.13;53.72;;;;;;;-2.51;100.00;95935.09;5015206;28;20451;-88
2022/01/25 00:55:33;;;;;;;146.45;50.75;;;;;;;-2.62;100.00;95931.00;4999435;28;20038;-87
2022/01/25 00:57:59;;;;;;;112.97;44.55;;;;;;;-2.68;100.00;95929.00;4999223;28;20026;-87
2022/01/25 01:00:25;;;;;;;127.55;45.15;;;;;;;-2.87;100.00;95928.19;5015443;28;20494;-87
2022/01/25 01:02:50;;;;;;;111.32;43.58;;;;;;;-2.70;100.00;95933.47;5015403;28;20034;-87
2022/01/25 01:05:16;;;;;;;134.77;47.30;;;;;;;-2.39;100.00;95942.59;5000236;28;20033;-88
2022/01/25 01:07:42;;;;;;;170.20;53.17;;;;;;;-2.78;100.00;95947.03;5015366;28;20030;-87
2022/01/25 01:10:12;;;;;;;378.20;62.03;;;;;;;-2.78;100.00;95949.59;4999184;28;20312;-87
2022/01/25 01:28:52;;;;;;;470.20;70.53;;;;;;;-2.63;100.00;95952.50;5015666;28;20451;-88
2022/01/25 01:31:31;;;;;;;247.80;54.10;;;;;;;-2.24;100.00;95959.09;5011722;28;20033;-87
2022/01/25 01:44:21;;;;;;;130.27;38.15;;;;;;;-2.02;100.00;95950.13;4999568;28;20113;-87
2022/01/25 01:47:02;;;;;;;140.30;40.58;;;;;;;-2.26;100.00;95943.03;4998631;28;20041;-87
2022/01/25 01:49:30;;;;;;;407.73;47.83;;;;;;;-2.26;100.00;95940.47;4998435;28;20023;-88
2022/01/25 01:51:55;;;;;;;511.10;53.95;;;;;;;-2.59;100.00;95946.09;4998340;28;20032;-87
2022/01/25 01:54:21;;;;;;;166.50;40.97;;;;;;;-2.33;100.00;95949.69;4998410;28;20339;-87
2022/01/25 01:56:46;;;;;;;178.13;40.85;;;;;;;-2.40;100.00;95941.78;4998095;28;20455;-87
2022/01/25 01:59:15;;;;;;;125.28;41.78;;;;;;;-2.46;100.00;95932.91;4998323;28;20491;-87
2022/01/25 02:01:42;;;;;;;128.98;38.53;;;;;;;-2.49;100.00;95937.53;4998076;28;20383;-88
2022/01/25 02:04:09;;;;;;;113.20;38.35;;;;;;;-2.31;100.00;95934.94;4982047;28;20033;-88
2022/01/25 02:06:35;;;;;;;119.82;39.78;;;;;;;-2.24;100.00;95941.13;4982204;28;20093;-88
2022/01/25 02:09:05;;;;;;;160.23;40.53;;;;;;;-2.45;100.00;95931.94;5014414;28;20464;-88
2022/01/25 02:11:31;;;;;;;124.72;38.63;;;;;;;-2.34;100.00;95936.06;5005058;28;20053;-88
2022/01/25 02:14:02;;;;;;;79.25;32.53;;;;;;;-2.31;100.00;95940.09;4990977;28;20038;-88
2022/01/25 02:16:41;;;;;;;132.73;37.75;;;;;;;-2.60;100.00;95930.84;4998956;28;20022;-88
2022/01/25 02:24:39;;;;;;;69.07;29.33;;;;;;;-2.69;100.00;95924.81;5011477;28;20044;-88
2022/01/25 02:27:05;;;;;;;77.22;31.45;;;;;;;-3.13;100.00;95920.38;5013553;28;20117;-88
2022/01/25 02:29:31;;;;;;;87.97;34.03;;;;;;;-3.24;100.00;95923.13;4997620;28;20030;-88
2022/01/25 02:31:57;;;;;;;105.43;38.22;;;;;;;-3.25;100.00;95916.38;4997454;28;20391;-88
2022/01/25 02:34:23;;;;;;;61.05;21.83;;;;;;;-3.13;100.00;95920.38;4997441;28;20165;-87
2022/01/25 02:37:03;;;;;;;47.83;18.42;;;;;;;-3.25;100.00;95921.50;4997111;28;20037;-87
2022/01/25 02:39:29;;;;;;;72.80;29.70;;;;;;;-3.29;100.00;95919.22;4997476;28;20096;-87
2022/01/25 02:41:55;;;;;;;56.00;22.30;;;;;;;-3.01;100.00;95916.66;5013541;28;20033;-87
2022/01/25 02:44:26;;;;;;;48.83;19.40;;;;;;;-2.84;100.00;95915.06;4997135;28;20026;-87
2022/01/25 02:49:18;;;;;;;45.08;17.25;;;;;;;-2.35;100.00;95920.81;4997521;28;20042;-87
2022/01/25 02:51:46;;;;;;;46.45;16.67;;;;;;;-2.23;100.00;95911.91;4981027;28;20034;-87
2022/01/25 02:54:13;;;;;;;46.63;18.30;;;;;;;-2.33;100.00;95903.50;4981326;28;20026;-88
2022/01/25 02:56:42;;;;;;;45.65;18.15;;;;;;;-2.38;100.00;95900.56;5013488;28;20098;-87
2022/01/25 02:59:08;;;;;;;49.15;17.13;;;;;;;-2.31;100.00;95909.28;5012887;28;20110;-87
2022/01/25 03:01:34;;;;;;;49.92;18.90;;;;;;;-2.30;100.00;95913.47;4996898;28;20038;-87
2022/01/25 03:04:00;;;;;;;53.63;20.17;;;;;;;-2.18;100.00;95909.69;4981031;28;20062;-87
2022/01/25 03:06:26;;;;;;;57.38;20.83;;;;;;;-2.11;100.00;95909.91;4996954;28;20085;-88
2022/01/25 03:08:52;;;;;;;55.00;19.58;;;;;;;-2.08;100.00;95909.66;4996844;28;20058;-88
2022/01/25 03:11:20;;;;;;;51.53;18.80;;;;;;;-2.11;100.00;95909.91;4996908;28;20339;-87
2022/01/25 03:13:51;;;;;;;58.50;19.90;;;;;;;-2.16;100.00;95907.78;4996980;28;20116;-87
2022/01/25 03:16:43;;;;;;;50.47;19.73;;;;;;;-2.15;100.00;95904.28;4996804;28;20073;-87
2022/01/25 03:22:07;;;;;;;38.67;15.50;;;;;;;-2.25;100.00;95910.44;4996297;28;20037;-87
2022/01/25 03:24:33;;;;;;;51.83;16.00;;;;;;;-2.29;100.00;95908.19;4981334;28;20030;-86
2022/01/25 03:26:58;;;;;;;36.47;14.63;;;;;;;-2.30;100.00;95909.13;4980437;28;20041;-87
2022/01/25 03:29:33;;;;;;;40.65;14.98;;;;;;;-2.17;100.00;95906.19;4980832;28;20034;-87
2022/01/25 03:31:59;;;;;;;36.08;13.13;;;;;;;-2.21;100.00;95904.88;4996448;28;20033;-87
2022/01/25 03:34:24;;;;;;;42.58;13.07;;;;;;;-2.17;100.00;95910.53;4996473;28;20105;-87
2022/01/25 03:36:49;;;;;;;32.42;13.07;;;;;;;-2.15;100.00;95909.44;4996425;28;20030;-87
2022/01/25 03:39:15;;;;;;;34.40;13.10;;;;;;;-2.04;100.00;95918.66;4980484;28;20379;-87
2022/01/25 03:41:41;;;;;;;36.50;13.40;;;;;;;-1.95;100.00;95911.81;4996511;28;20077;-87
2022/01/25 03:44:07;;;;;;;41.50;14.82;;;;;;;-1.81;100.00;95910.44;4980401;28;20022;-87
2022/01/25 03:46:40;;;;;;;39.83;13.77;;;;;;;-1.78;100.00;95905.03;4996547;28;20432;-87
2022/01/25 03:51:51;;;;;;;24.65;11.02;;;;;;;-1.61;100.00;95897.41;4996509;28;20033;-87
2022/01/25 03:54:17;;;;;;;31.52;11.75;;;;;;;-1.58;100.00;95900.47;4980332;28;20026;-88
2022/01/25 03:56:43;;;;;;;25.20;10.45;;;;;;;-1.55;100.00;95895.97;4983395;28;20136;-87
2022/01/25 03:59:09;;;;;;;30.70;11.43;;;;;;;-1.55;100.00;95898.56;5000301;28;20466;-88
2022/01/25 04:01:35;;;;;;;26.52;10.88;;;;;;;-1.50;100.00;95891.19;4984552;28;20046;-88
2022/01/25 04:04:05;;;;;;;21.98;9.38;;;;;;;-1.49;100.00;95892.78;4997966;28;20332;-88
2022/01/25 04:06:33;;;;;;;26.35;10.73;;;;;;;-1.42;100.00;95884.31;4973206;28;20026;-88
2022/01/25 04:09:02;;;;;;;25.23;10.05;;;;;;;-1.35;100.00;95891.41;4999845;28;20077;-88
2022/01/25 04:11:28;;;;;;;32.45;10.32;;;;;;;-1.31;100.00;95885.78;4996829;28;20027;-88
2022/01/25 04:13:56;;;;;;;27.20;9.80;;;;;;;-1.27;100.00;95888.06;4964391;28;20038;-87
2022/01/25 04:16:28;;;;;;;27.52;10.43;;;;;;;-1.15;100.00;95879.09;4996558;28;20050;-87
2022/01/25 04:19:01;;;;;;;29.52;10.13;;;;;;;-1.17;100.00;95875.88;4980486;28;20030;-87
2022/01/25 04:26:42;;;;;;;21.15;8.82;;;;;;;-1.01;100.00;95870.78;4980261;28;20165;-87
2022/01/25 04:29:08;;;;;;;18.45;9.45;;;;;;;-1.02;100.00;95864.00;4964332;28;20368;-88
2022/01/25 04:31:35;;;;;;;26.77;9.75;;;;;;;-0.94;100.00;95858.09;4964604;28;20145;-88
2022/01/25 04:34:14;;;;;;;24.48;9.20;;;;;;;-0.99;100.00;95855.19;4980649;28;20030;-87
2022/01/25 04:50:04;;;;;;;24.80;10.25;;;;;;;-0.95;100.00;95841.03;4980065;28;20048;-88
2022/01/25 04:52:35;;;;;;;32.72;8.25;;;;;;;-1.06;100.00;95842.16;4979844;28;20046;-88
2022/01/25 04:55:10;;;;;;;16.42;7.97;;;;;;;-0.98;100.00;95838.78;4964653;28;20089;-87
2022/01/25 04:57:52;;;;;;;14.60;8.00;;;;;;;-0.98;100.00;95838.78;4965231;28;20049;-88
2022/01/25 05:00:21;;;;;;;21.67;7.55;;;;;;;-1.00;100.00;95833.00;4979914;28;20388;-87
2022/01/25 05:05:32;;;;;;;20.17;8.50;;;;;;;-1.00;100.00;95841.53;4980167;28;20023;-88
2022/01/25 05:10:32;;;;;;;13.70;7.18;;;;;;;-0.98;100.00;95828.50;4979835;28;20130;-87
2022/01/25 05:14:12;;;;;;;19.58;7.75;;;;;;;-1.17;100.00;95824.44;4964040;28;20053;-87
2022/01/25 05:18:39;;;;;;;18.88;8.63;;;;;;;-1.23;100.00;95825.84;4979482;28;20077;-87
2022/01/25 05:23:48;;;;;;;19.85;7.93;;;;;;;-1.45;100.00;95816.97;4979597;28;20041;-87
2022/01/25 05:26:13;;;;;;;17.77;7.75;;;;;;;-1.51;100.00;95820.94;4979485;28;20414;-88
2022/01/25 05:28:40;;;;;;;19.45;7.28;;;;;;;-1.46;100.00;95823.06;4963492;28;20054;-88
2022/01/25 05:31:05;;;;;;;19.95;7.72;;;;;;;-1.46;100.00;95812.78;4963583;28;20129;-88
2022/01/25 05:33:31;;;;;;;23.38;8.23;;;;;;;-1.52;100.00;95818.56;4979486;28;20113;-88
2022/01/25 05:35:57;;;;;;;18.88;7.95;;;;;;;-1.62;100.00;95824.63;4962852;28;20081;-88
2022/01/25 05:38:23;;;;;;;18.02;8.38;;;;;;;-1.74;100.00;95823.28;4963128;28;20030;-88
2022/01/25 05:40:57;;;;;;;27.33;8.90;;;;;;;-1.85;100.00;95835.44;4963508;28;20114;-88
2022/01/25 05:46:19;;;;;;;18.15;8.68;;;;;;;-1.60;100.00;95829.59;4979166;28;20061;-87
2022/01/25 05:48:48;;;;;;;17.48;8.32;;;;;;;-1.72;100.00;95827.31;4994993;28;20384;-87
2022/01/25 05:51:14;;;;;;;25.92;8.40;;;;;;;-1.74;100.00;95830.97;5008922;28;20065;-87
2022/01/25 05:53:42;;;;;;;20.10;8.68;;;;;;;-1.58;100.00;95823.38;4972595;28;20041;-87
2022/01/25 05:56:08;;;;;;;27.88;9.20;;;;;;;-1.46;100.00;95826.44;4980882;28;20035;-87
2022/01/25 05:58:34;;;;;;;21.55;8.65;;;;;;;-1.60;100.00;95825.25;4978800;28;20380;-87
2022/01/25 06:01:00;;;;;;;16.55;7.47;;;;;;;-1.65;100.00;95819.78;4994972;28;20027;-87
2022/01/25 06:03:25;;;;;;;23.08;9.00;;;;;;;-1.62;100.00;95819.47;4962778;28;20452;-87
2022/01/25 06:05:51;;;;;;;19.63;8.00;;;;;;;-1.71;100.00;95820.41;4962656;28;20011;-87
2022/01/25 06:08:16;;;;;;;19.58;7.72;;;;;;;-1.81;100.00;95817.94;4978523;28;20325;-87
2022/01/25 06:10:42;;;;;;;25.02;8.48;;;;;;;-1.83;100.00;95821.63;4978233;28;20026;-87
2022/01/25 06:13:09;;;;;;;17.27;8.00;;;;;;;-1.80;100.00;95816.97;4978610;28;20405;-87
2022/01/25 06:15:34;;;;;;;19.35;7.03;;;;;;;-1.73;100.00;95814.59;4979398;28;20027;-87
2022/01/25 06:18:00;;;;;;;19.77;7.88;;;;;;;-1.75;100.00;95813.94;4977861;28;20030;-87
2022/01/25 06:20:25;;;;;;;17.95;7.55;;;;;;;-1.75;100.00;95812.19;4962244;28;20056;-87
2022/01/25 06:22:51;;;;;;;16.77;7.88;;;;;;;-1.81;100.00;95809.44;4978472;28;20038;-87
2022/01/25 06:25:16;;;;;;;15.50;7.40;;;;;;;-1.82;100.00;95815.53;4978337;28;20437;-87
2022/01/25 06:27:43;;;;;;;22.48;7.88;;;;;;;-1.92;100.00;95805.38;4994304;28;20086;-87
2022/01/25 06:30:11;;;;;;;20.75;7.50;;;;;;;-1.72;100.00;95809.31;4977962;28;20035;-87
2022/01/25 06:32:36;;;;;;;18.30;7.35;;;;;;;-1.89;100.00;95812.78;4977926;28;20073;-87
2022/01/25 06:35:04;;;;;;;16.90;7.20;;;;;;;-2.02;100.00;95813.19;4993940;28;20444;-87
2022/01/25 06:37:29;;;;;;;19.17;7.88;;;;;;;-2.08;100.00;95817.19;4978009;28;20034;-87
2022/01/25 06:39:55;;;;;;;21.38;7.85;;;;;;;-2.14;100.00;95813.44;4977871;28;20034;-87
2022/01/25 06:42:21;;;;;;;17.80;7.97;;;;;;;-2.16;100.00;95825.63;4977640;28;20058;-86
2022/01/25 06:44:46;;;;;;;21.70;8.50;;;;;;;-2.06;100.00;95817.00;4977399;28;20030;-87
2022/01/25 06:47:12;;;;;;;21.02;8.52;;;;;;;-2.21;100.00;95817.56;4961655;28;20035;-87
2022/01/25 06:49:37;;;;;;;24.92;8.48;;;;;;;-2.28;100.00;95817.38;4961788;28;20093;-87
2022/01/25 06:52:03;;;;;;;25.58;9.57;;;;;;;-2.19;100.00;95822.56;4961588;28;20077;-87
2022/01/25 06:54:28;;;;;;;20.27;8.32;;;;;;;-2.29;100.00;95814.97;4977561;28;20034;-87
2022/01/25 06:56:54;;;;;;;20.38;9.27;;;;;;;-2.30;100.00;95818.47;4961394;28;20035;-87
2022/01/25 06:59:19;;;;;;;27.20;10.23;;;;;;;-2.29;100.00;95820.09;4961642;28;20034;-87
2022/01/25 07:01:45;;;;;;;25.90;9.43;;;;;;;-2.24;100.00;95819.63;4978446;28;20109;-87
2022/01/25 07:04:10;;;;;;;29.02;10.50;;;;;;;-2.16;100.00;95823.03;4977698;28;20027;-87
2022/01/25 07:06:36;;;;;;;24.15;10.70;;;;;;;-2.08;100.00;95818.94;4977436;28;20038;-87
2022/01/25 07:09:02;;;;;;;26.83;9.77;;;;;;;-2.03;100.00;95817.53;4977377;28;20396;-87
2022/01/25 07:11:29;;;;;;;22.25;10.05;;;;;;;-1.91;100.00;95824.97;4993325;28;20062;-87
2022/01/25 07:13:55;;;;;;;21.90;9.32;;;;;;;-1.80;100.00;95826.47;4961523;28;20117;-87
2022/01/25 07:16:20;;;;;;;32.58;12.65;;;;;;;-1.55;100.00;95818.88;4977246;28;20030;-87
2022/01/25 07:18:46;;;;;;;35.17;12.48;;;;;;;-1.55;100.00;95817.09;4977285;28;20417;-86
2022/01/25 07:21:11;;;;;;;24.15;11.20;;;;;;;-1.52;100.00;95818.56;4960771;28;20031;-87
2022/01/25 07:23:37;;;;;;;24.60;10.70;;;;;;;-1.47;100.00;95816.31;4977235;28;20058;-87
2022/01/25 07:26:02;;;;;;;162.60;53.20;;;;;;;-1.40;100.00;95819.88;4979563;28;20041;-87
2022/01/25 07:28:29;;;;;;;27.65;10.68;;;;;;;-1.31;100.00;95818.94;5013142;28;20034;-87
2022/01/25 07:30:54;;;;;;;29.92;12.20;;;;;;;-1.17;100.00;95814.97;4980418;28;20116;-87
2022/01/25 07:33:20;;;;;;;27.65;11.73;;;;;;;-1.13;100.00;95825.75;4980538;28;20125;-87
2022/01/25 07:35:45;;;;;;;22.15;9.18;;;;;;;-1.04;100.00;95829.13;4980354;28;20034;-87
2022/01/25 07:38:14;;;;;;;23.50;9.93;;;;;;;-0.86;100.00;95831.59;5012791;28;20034;-86
2022/01/25 07:40:40;;;;;;;21.52;8.68;;;;;;;-0.86;100.00;95826.44;5012008;28;20117;-86
2022/01/25 07:43:07;;;;;;;24.58;9.35;;;;;;;-0.75;100.00;95830.47;5012534;28;20108;-86
2022/01/25 07:45:35;;;;;;;23.58;10.10;;;;;;;-0.74;100.00;95835.44;4980371;28;20049;-86
2022/01/25 07:48:06;;;;;;;21.40;9.52;;;;;;;-0.74;100.00;95830.28;4996031;28;20399;-86
2022/01/25 07:50:32;;;;;;;19.88;9.13;;;;;;;-0.75;100.00;95820.97;5012313;28;20347;-86
2022/01/25 07:52:57;;;;;;;26.50;11.15;;;;;;;-0.81;100.00;95831.91;4980141;28;20034;-86
2022/01/25 07:55:23;;;;;;;24.17;10.52;;;;;;;-0.76;100.00;95829.66;4979982;28;20044;-86
2022/01/25 07:57:48;;;;;;;23.23;9.18;;;;;;;-0.73;100.00;95824.16;4995951;28;20114;-86
2022/01/25 08:00:15;;;;;;;26.65;9.40;;;;;;;-0.67;100.00;95819.38;4995829;28;20069;-86
2022/01/25 08:02:41;;;;;;;22.88;11.43;;;;;;;-0.67;100.00;95822.72;5012591;28;20109;-86
2022/01/25 08:05:07;;;;;;;30.17;12.02;;;;;;;-0.73;100.00;95816.44;4995963;28;20061;-86
2022/01/25 08:07:33;;;;;;;32.45;12.85;;;;;;;-0.65;100.00;95817.44;4997091;28;20030;-86
2022/01/25 08:09:58;;;;;;;32.63;13.00;;;;;;;-0.55;100.00;95814.69;4979870;28;20036;-86
2022/01/25 08:12:25;;;;;;;34.00;13.43;;;;;;;-0.33;100.00;95808.91;4995652;28;20444;-86
2022/01/25 08:14:50;;;;;;;33.42;13.73;;;;;;;-0.29;100.00;95807.59;4995788;28;20031;-86
2022/01/25 08:17:17;;;;;;;33.60;14.23;;;;;;;-0.21;100.00;95806.78;4979895;28;20030;-86
2022/01/25 08:19:44;;;;;;;34.03;13.90;;;;;;;-0.20;100.00;95810.97;4995816;28;20037;-86
2022/01/25 08:22:10;;;;;;;31.70;14.55;;;;;;;-0.13;100.00;95815.47;4979534;28;20140;-86
2022/01/25 08:24:36;;;;;;;36.95;14.70;;;;;;;-0.15;100.00;95813.84;4995636;28;20053;-86
2022/01/25 08:27:01;;;;;;;41.25;16.60;;;;;;;-0.01;100.00;95808.97;4995704;28;20022;-86
2022/01/25 08:29:27;;;;;;;38.72;15.45;;;;;;;0.06;100.00;95814.28;4979703;28;20066;-86
2022/01/25 08:31:52;;;;;;;40.63;16.98;;;;;;;0.04;100.00;95811.88;4995602;28;20030;-86
2022/01/25 08:34:18;;;;;;;37.58;15.75;;;;;;;0.01;100.00;95812.22;4979689;28;20329;-86
2022/01/25 08:36:43;;;;;;;30.75;14.40;;;;;;;-0.02;100.00;95815.09;4979630;28;20042;-86
2022/01/25 08:39:13;;;;;;;39.05;16.55;;;;;;;-0.01;100.00;95819.28;4979919;28;20034;-87
2022/01/25 08:41:39;;;;;;;39.78;15.82;;;;;;;0.03;100.00;95809.47;4981474;28;20347;-86
2022/01/25 08:44:05;;;;;;;49.33;16.33;;;;;;;0.20;100.00;95811.03;5015566;28;20120;-86
2022/01/25 08:46:31;;;;;;;35.13;15.02;;;;;;;0.28;100.00;95808.44;4982957;28;20124;-86
2022/01/25 08:48:57;;;;;;;36.08;16.52;;;;;;;0.48;100.00;95820.13;5015415;28;20124;-86
2022/01/25 08:51:22;;;;;;;34.90;15.80;;;;;;;0.37;100.00;95814.34;4982959;28;20130;-86
2022/01/25 08:53:48;;;;;;;38.40;16.70;;;;;;;0.54;100.00;95812.53;4998935;28;20478;-86
2022/01/25 08:56:13;;;;;;;43.25;16.98;;;;;;;0.59;100.00;95812.03;4998819;28;20034;-86
2022/01/25 08:58:40;;;;;;;41.88;17.40;;;;;;;0.51;100.00;95807.72;4983181;28;20324;-86
2022/01/25 09:01:06;;;;;;;37.30;15.18;;;;;;;0.59;100.00;95803.47;4998973;28;20034;-86
2022/01/25 09:03:32;;;;;;;36.50;17.23;;;;;;;0.66;100.00;95817.31;4998898;28;20061;-86
2022/01/25 09:05:57;;;;;;;43.35;17.52;;;;;;;0.56;100.00;95815.75;4982691;28;20454;-86
2022/01/25 09:08:26;;;;;;;38.35;16.48;;;;;;;0.73;100.00;95817.44;5000108;28;20073;-86
2022/01/25 09:10:57;;;;;;;43.53;18.27;;;;;;;0.61;100.00;95811.84;4982985;28;20084;-86
2022/01/25 09:13:23;;;;;;;43.47;17.77;;;;;;;0.53;100.00;95816.09;5014278;28;20351;-86
2022/01/25 09:15:49;;;;;;;40.97;18.00;;;;;;;0.58;100.00;95813.00;5014896;28;20062;-86
2022/01/25 09:18:15;;;;;;;42.28;18.83;;;;;;;0.65;100.00;95819.09;4982440;28;20351;-86
2022/01/25 09:20:40;;;;;;;43.42;18.92;;;;;;;0.74;100.00;95821.63;4982402;28;20026;-86
2022/01/25 09:23:06;;;;;;;40.60;18.55;;;;;;;0.77;100.00;95822.06;4982387;28;20091;-86
2022/01/25 09:25:31;;;;;;;41.33;18.45;;;;;;;0.74;100.00;95817.25;4998337;28;20497;-86
2022/01/25 09:27:57;;;;;;;43.85;18.98;;;;;;;0.82;100.00;95819.00;5014674;28;20120;-86
2022/01/25 09:30:23;;;;;;;44.03;19.30;;;;;;;0.86;100.00;95817.66;4982201;28;20056;-86
2022/01/25 09:32:48;;;;;;;40.33;17.85;;;;;;;1.11;100.00;95820.94;4982295;28;20057;-86
2022/01/25 09:35:14;;;;;;;46.80;19.33;;;;;;;1.08;100.00;95812.72;4998070;28;20432;-86
2022/01/25 09:37:40;;;;;;;45.22;18.08;;;;;;;1.20;100.00;95805.38;4998140;28;20116;-86
2022/01/25 09:40:06;;;;;;;38.33;16.90;;;;;;;1.34;100.00;95816.75;4982024;28;20117;-86
2022/01/25 09:42:32;;;;;;;42.67;16.92;;;;;;;1.52;100.00;95811.28;4998107;28;20037;-86
2022/01/25 09:44:58;;;;;;;38.22;17.00;;;;;;;1.66;100.00;95812.28;4997993;28;20026;-86
2022/01/25 09:47:24;;;;;;;43.42;19.10;;;;;;;1.70;100.00;95810.94;4998194;28;20070;-86
2022/01/25 09:49:50;;;;;;;43.42;19.27;;;;;;;1.59;100.00;95808.81;4997927;28;20057;-86
2022/01/25 09:52:17;;;;;;;37.10;17.17;;;;;;;1.70;100.00;95803.19;4981135;28;20399;-86
2022/01/25 09:54:43;;;;;;;40.45;16.48;;;;;;;1.67;100.00;95811.31;5013771;28;20053;-86
2022/01/25 09:57:08;;;;;;;37.70;17.02;;;;;;;1.68;100.00;95803.38;4981368;28;20073;-86
2022/01/25 09:59:34;;;;;;;38.67;17.20;;;;;;;1.79;100.00;95806.50;4981682;28;20408;-86
2022/01/25 10:01:59;;;;;;;37.47;16.95;;;;;;;1.91;100.00;95812.06;4997600;28;20064;-86
2022/01/25 10:04:34;;;;;;;34.25;16.75;;;;;;;1.97;100.00;95812.16;4981618;28;20041;-86
2022/01/25 10:07:00;;;;;;;44.10;17.98;;;;;;;1.95;100.00;95793.44;4997622;28;20030;-86
2022/01/25 10:09:28;;;;;;;41.10;17.52;;;;;;;1.95;100.00;95795.22;4997838;28;20138;-86
2022/01/25 10:11:54;;;;;;;40.75;18.25;;;;;;;2.14;100.00;95801.66;4997460;28;20034;-86
2022/01/25 10:14:23;;;;;;;37.45;17.30;;;;;;;2.28;100.00;95792.25;4997428;28;20125;-86
2022/01/25 10:16:53;;;;;;;43.63;18.15;;;;;;;2.34;100.00;95786.41;4997419;28;20037;-86
2022/01/25 10:19:24;;;;;;;42.28;17.50;;;;;;;2.23;100.00;95789.44;4981346;28;20088;-86
2022/01/25 10:21:51;;;;;;;37.20;16.80;;;;;;;2.41;100.00;95783.88;4981138;28;20034;-86
2022/01/25 10:24:18;;;;;;;37.00;16.77;;;;;;;2.39;100.00;95781.47;4997266;28;20329;-86
2022/01/25 10:26:48;;;;;;;39.33;16.60;;;;;;;2.28;100.00;95783.72;4998386;28;20427;-86
2022/01/25 10:29:23;;;;;;;34.88;16.23;;;;;;;2.32;100.00;95783.19;4981258;28;20041;-86
2022/01/25 10:31:52;;;;;;;39.50;16.25;;;;;;;2.24;100.00;95791.03;4981266;28;20455;-86
2022/01/25 10:34:27;;;;;;;36.65;16.48;;;;;;;2.15;100.00;95781.75;4981183;28;20120;-86
2022/01/25 10:36:53;;;;;;;37.63;15.85;;;;;;;2.17;100.00;95780.59;5013365;28;20030;-86
2022/01/25 10:39:45;;;;;;;38.88;17.25;;;;;;;2.26;100.00;95769.19;4997624;28;20037;-86
2022/01/25 10:42:23;;;;;;;33.63;14.77;;;;;;;2.54;100.00;95754.78;4998013;28;20033;-86
2022/01/25 10:45:02;;;;;;;30.15;13.43;;;;;;;2.68;100.00;95761.69;4996991;28;20030;-86
2022/01/25 10:47:45;;;;;;;33.28;15.15;;;;;;;2.83;100.00;95759.09;4997121;28;20034;-86
2022/01/25 10:50:15;;;;;;;45.50;16.98;;;;;;;2.85;100.00;95753.69;4997875;28;20030;-86
2022/01/25 10:52:41;;;;;;;36.45;16.75;;;;;;;2.95;100.00;95748.25;4996813;28;20450;-86
2022/01/25 10:55:07;;;;;;;39.42;17.73;;;;;;;2.86;100.00;95755.31;4980618;28;20038;-86
2022/01/25 10:57:33;;;;;;;39.80;16.35;;;;;;;3.07;100.00;95745.97;5013015;28;20034;-86
2022/01/25 11:00:08;;;;;;;40.90;17.63;;;;;;;3.00;100.00;95745.06;4996779;28;20085;-85
2022/01/25 11:02:34;;;;;;;40.08;17.80;;;;;;;2.66;100.00;95737.78;4980967;28;20045;-86
2022/01/25 11:05:07;;;;;;;41.63;18.27;;;;;;;2.74;100.00;95736.09;4996245;28;20510;-86
2022/01/25 11:07:37;;;;;;;;;;;;;;;2.77;100.00;95735.72;4981041;28;20057;-86
2022/01/25 11:10:03;;;;;;;48.03;19.92;;;;;;;2.80;100.00;95723.22;4980609;28;19910;-86
2022/01/25 11:12:36;;;;;;;53.70;21.08;;;;;;;3.00;100.00;95720.00;5012722;28;20396;-86
2022/01/25 11:15:02;;;;;;;52.47;21.17;;;;;;;3.10;100.00;95720.50;4981407;28;20030;-86
2022/01/25 11:17:29;;;;;;;42.70;18.55;;;;;;;3.15;100.00;95725.09;4996303;28;20037;-86
2022/01/25 11:19:55;;;;;;;40.80;17.35;;;;;;;3.10;100.00;95717.91;4996216;28;20506;-86
2022/01/25 11:22:21;;;;;;;43.55;18.55;;;;;;;3.07;100.00;95712.28;5012662;28;20073;-85
2022/01/25 11:24:49;;;;;;;46.63;18.38;;;;;;;2.92;100.00;95707.16;4996571;28;20070;-86
2022/01/25 11:27:15;;;;;;;51.70;20.13;;;;;;;2.95;100.00;95699.84;4996192;28;20081;-86
2022/01/25 11:29:49;;;;;;;49.47;18.60;;;;;;;2.90;100.00;95704.78;4980522;28;20034;-86
2022/01/25 11:32:17;;;;;;;38.80;16.90;;;;;;;3.05;100.00;95706.50;4979895;28;20030;-86
2022/01/25 11:34:44;;;;;;;45.88;19.13;;;;;;;3.03;100.00;95692.94;4977287;28;20027;-86
2022/01/25 11:37:10;;;;;;;43.47;17.55;;;;;;;3.00;100.00;95698.47;4976661;28;20031;-87
2022/01/25 11:39:40;;;;;;;40.47;15.65;;;;;;;2.99;100.00;95692.50;4976943;28;20038;-87
2022/01/25 11:42:06;;;;;;;33.92;13.25;;;;;;;3.21;100.00;95690.69;4977339;28;20077;-87
2022/01/25 11:44:33;;;;;;;47.85;18.38;;;;;;;3.28;100.00;95695.94;4961044;28;20031;-87
2022/01/25 11:47:09;;;;;;;40.65;17.70;;;;;;;3.42;100.00;95677.88;4977391;28;20026;-87
2022/01/25 11:49:36;;;;;;;41.17;16.67;;;;;;;3.51;100.00;95677.53;4977167;28;20077;-87
2022/01/25 11:52:13;;;;;;;33.90;14.93;;;;;;;3.76;100.00;95673.69;4960486;28;20038;-87
2022/01/25 11:54:40;;;;;;;30.13;12.30;;;;;;;3.81;100.00;95671.34;4977050;28;20491;-87
2022/01/25 11:57:18;;;;;;;30.20;12.23;;;;;;;3.86;100.00;95665.56;4976469;28;20042;-87
2022/01/25 11:59:56;;;;;;;32.00;13.48;;;;;;;3.79;100.00;95662.94;4976605;28;20046;-87
2022/01/25 12:02:44;;;;;;;30.80;13.68;;;;;;;3.83;100.00;95653.78;4992917;28;20034;-86
2022/01/25 12:05:12;;;;;;;30.35;12.13;;;;;;;3.98;100.00;95658.84;4976707;28;20110;-86
2022/01/25 12:07:43;;;;;;;29.95;12.40;;;;;;;3.98;100.00;95653.66;4976507;28;20031;-87
2022/01/25 12:10:35;;;;;;;33.85;13.93;;;;;;;4.12;100.00;95654.50;4993030;28;20033;-86
2022/01/25 12:13:27;;;;;;;31.00;12.60;;;;;;;4.08;100.00;95651.50;4960688;28;20027;-87
2022/01/25 12:16:26;;;;;;;36.38;14.75;;;;;;;4.22;100.00;95641.94;4961269;28;20026;-86
2022/01/25 12:18:59;;;;;;;51.90;20.55;;;;;;;4.08;100.00;95646.31;4964455;28;20035;-87
2022/01/25 12:21:55;;;;;;;55.40;20.33;;;;;;;4.35;100.00;95649.00;4964336;28;20046;-86
2022/01/25 12:24:35;;;;;;;37.85;15.00;;;;;;;4.38;100.00;95643.41;4980348;28;20019;-86
2022/01/25 12:29:35;;;;;;;37.50;16.02;;;;;;;4.63;100.00;95640.25;4979951;28;20441;-86
2022/01/25 12:32:19;;;;;;;51.08;19.92;;;;;;;4.45;100.00;95634.84;4963882;28;20035;-87
2022/01/25 12:35:14;;;;;;;45.75;18.60;;;;;;;4.62;100.00;95638.66;4979917;28;20034;-86
2022/01/25 12:37:43;;;;;;;57.38;20.60;;;;;;;4.58;100.00;95619.28;4979868;28;20073;-86
2022/01/25 12:40:28;;;;;;;53.30;20.75;;;;;;;4.69;100.00;95620.50;4980813;28;20027;-86
2022/01/25 12:43:21;;;;;;;54.47;20.95;;;;;;;4.85;100.00;95619.28;4980240;28;20031;-86
2022/01/25 12:45:56;;;;;;;59.78;23.45;;;;;;;4.76;100.00;95605.72;4979404;28;20097;-86
2022/01/25 12:48:27;;;;;;;67.90;23.77;;;;;;;4.86;100.00;95613.09;4980880;28;20031;-86
2022/01/25 12:50:55;;;;;;;64.03;24.08;;;;;;;4.93;100.00;95613.91;4979612;28;20396;-87
2022/01/25 12:53:23;;;;;;;64.80;23.33;;;;;;;4.84;100.00;95615.09;4979514;28;20026;-87
2022/01/25 12:55:51;;;;;;;64.05;24.00;;;;;;;4.88;100.00;95610.31;4963783;28;20086;-87
2022/01/25 12:58:26;;;;;;;75.68;25.55;;;;;;;4.95;100.00;95601.53;4963740;28;20073;-86
2022/01/25 13:00:53;;;;;;;62.53;24.73;;;;;;;4.89;100.00;95596.31;4979604;28;20026;-86
2022/01/25 13:03:18;;;;;;;69.85;25.00;;;;;;;4.92;100.00;95591.53;4963553;28;20085;-86
2022/01/25 13:05:59;;;;;;;65.70;24.13;;;;;;;5.11;100.00;95596.91;4980448;28;20034;-86
2022/01/25 13:08:40;;;;;;;71.00;26.48;;;;;;;5.09;100.00;95584.13;4995777;28;20019;-86